Terminal Aerodrome Forecast
Issued by NWS Charleston, WV

Current Version | Previous Version | Graphics & Text | Print | Product List | Glossary On
Versions: 1 2 3 4 5 6 7 8 9 10 11 12 13 14 15 16 17 18 19 20
170
FTUS41 KRLX 031720
TAFBKW
TAF
KBKW 031720Z 0318/0418 21009KT P6SM BKN100
     FM032300 24008KT P6SM SCT030
     FM040200 27007KT P6SM BKN035
     FM040500 29008KT P6SM BKN015
     FM041400 30007KT 5SM -SHSN BKN010=

USA.gov is the U.S. government's official web portal to all federal, state and local government web resources and services.